John H. — WAC6768 — position and weather

sailwx.info

Track history (hours):
 
Tides and Currents Weather Stations Pressure Air Temp Water Temp Dewpoint Dewpoint Depression Visibility Wind Speed Wind Dir Waves Ship Positions

John H.

Owner: CROSS SOUND FERRY SERVICE INC, NEW LOUDON, CT. More information available from US FCC via Universal Licensing System and Coast Guard Vessel Documentation Center.

Last reported at 2017-Nov-22 23:30 UTC. Time now 2017-Nov-23 00:22 UTC.
Position N 41°09' W 072°14'.

Length 70 m; draft 3.2 m.

Type: Passenger vessel. MMSI: 366934890.

Date/timePositionNaut miles runAvg speedWind from/ knotsBaromVisibWave heightAir tempDewpointWater temp
2017-Nov-22 23:30N 41°09' W 072°14'611.1
2017-Nov-22 23:01N 41°14' W 072°10'4 2.3
2017-Nov-22 21:09N 41°17' W 072°06'213.6
2017-Nov-22 21:00N 41°15' W 072°08'713.5
2017-Nov-22 20:30N 41°10' W 072°13'1 0.9
2017-Nov-22 19:33N 41°09' W 072°14'112.9
2017-Nov-22 19:30N 41°09' W 072°13'  
2017-Nov-20 00:29N 41°12' W 072°13'4 1.2
2017-Nov-19 20:47N 41°15' W 072°08'7 1.3
2017-Nov-19 15:18N 41°09' W 072°14'3 9.5
2017-Nov-19 15:00N 41°12' W 072°12'8 4.2
2017-Nov-19 13:04N 41°18' W 072°05'312.6
2017-Nov-19 12:50N 41°16' W 072°07'412.5
2017-Nov-19 12:30N 41°13' W 072°11'4 4.4
2017-Nov-19 11:38N 41°09' W 072°14'1 8.5
2017-Nov-19 11:30N 41°10' W 072°14'611.6
2017-Nov-19 10:59N 41°15' W 072°08'4 0.5
2017-Nov-19 02:31N 41°18' W 072°05'013.7
2017-Nov-19 02:30N 41°18' W 072°05'612.6
2017-Nov-19 02:00N 41°13' W 072°11'5 6.6
2017-Nov-19 01:18N 41°09' W 072°14'2 6.3
2017-Nov-19 00:56N 41°11' W 072°13'614.6
2017-Nov-19 00:30N 41°16' W 072°07'3 1.8
2017-Nov-18 22:59N 41°18' W 072°05'713.2
2017-Nov-18 22:29N 41°13' W 072°11'4 3.5
2017-Nov-18 21:16N 41°09' W 072°14'311.3
2017-Nov-18 21:00N 41°12' W 072°12'611.4
2017-Nov-18 20:30N 41°16' W 072°07'2 1.5
2017-Nov-18 18:55N 41°18' W 072°05'614.3
2017-Nov-18 18:30N 41°13' W 072°10'5 3.8
2017-Nov-18 17:18N 41°09' W 072°13'310.5
2017-Nov-18 17:00N 41°12' W 072°12'4 2.0
2017-Nov-18 14:47N 41°15' W 072°08'312.4
2017-Nov-18 14:30N 41°13' W 072°11'5 3.5
2017-Nov-18 13:12N 41°09' W 072°14'210.7
2017-Nov-18 12:59N 41°11' W 072°13'714.8
2017-Nov-18 12:30N 41°16' W 072°07'2 0.2
2017-Nov-18 01:05N 41°18' W 072°05'212.5
2017-Nov-18 00:57N 41°16' W 072°06'511.8
2017-Nov-18 00:30N 41°13' W 072°11'3 2.2
2017-Nov-17 23:08N 41°10' W 072°13'211.6
2017-Nov-17 23:00N 41°12' W 072°13'6 2.9
2017-Nov-17 20:50N 41°16' W 072°06'514.1
2017-Nov-17 20:29N 41°12' W 072°11'4 1.1
2017-Nov-17 16:46N 41°15' W 072°07'3 1.6
2017-Nov-17 14:51N 41°14' W 072°11'5 3.3
2017-Nov-17 13:12N 41°17' W 072°05'312.8
2017-Nov-17 12:59N 41°15' W 072°07'611.8
2017-Nov-17 12:30N 41°11' W 072°13'2 0.2
2017-Nov-17 01:17N 41°09' W 072°14'3 9.8
2017-Nov-17 01:00N 41°12' W 072°13'713.2
2017-Nov-17 00:30N 41°16' W 072°07'2 1.5
2017-Nov-16 23:07N 41°18' W 072°05'112.2
2017-Nov-16 23:00N 41°17' W 072°06'612.1
2017-Nov-16 22:29N 41°12' W 072°12'3 2.3
2017-Nov-16 21:11N 41°10' W 072°13'211.3
2017-Nov-16 21:00N 41°12' W 072°12'612.5
2017-Nov-16 20:30N 41°16' W 072°07'1 0.8
2017-Nov-16 18:54N 41°17' W 072°06'613.8
2017-Nov-16 18:29N 41°13' W 072°11'4 3.0
2017-Nov-16 17:15N 41°09' W 072°13'310.7
2017-Nov-16 17:00N 41°12' W 072°12'611.3
2017-Nov-16 16:29N 41°16' W 072°07'2 1.0
2017-Nov-16 14:58N 41°17' W 072°05'613.1
2017-Nov-16 14:29N 41°13' W 072°11'4 3.5
2017-Nov-16 13:17N 41°09' W 072°14'311.3
2017-Nov-16 13:00N 41°12' W 072°13'813.4
2017-Nov-16 12:24N 41°18' W 072°06'0 0.0
2017-Nov-16 01:02N 41°18' W 072°05'213.4
2017-Nov-16 00:51N 41°16' W 072°07'512.3
2017-Nov-16 00:29N 41°13' W 072°11'4 3.6
2017-Nov-15 23:18N 41°09' W 072°14'311.0
2017-Nov-15 23:00N 41°12' W 072°12'8 4.2
2017-Nov-15 21:06N 41°18' W 072°05'311.6
2017-Nov-15 20:51N 41°16' W 072°07'412.3
2017-Nov-15 20:30N 41°13' W 072°11'4 3.4
2017-Nov-15 19:19N 41°09' W 072°14'310.5
2017-Nov-15 19:00N 41°12' W 072°12'7 3.4
2017-Nov-15 16:54N 41°17' W 072°05'614.6
2017-Nov-15 16:30N 41°13' W 072°11'4 3.6
2017-Nov-15 15:19N 41°09' W 072°14'411.1
2017-Nov-15 14:59N 41°12' W 072°12'3 0.2
2017-Nov-15 01:12N 41°09' W 072°13'211.8
2017-Nov-15 01:00N 41°12' W 072°13'714.0
2017-Nov-15 00:29N 41°17' W 072°06'0 0.1
2017-Nov-14 23:00N 41°17' W 072°06'611.7
2017-Nov-14 22:30N 41°13' W 072°12'4 2.9
2017-Nov-14 21:10N 41°09' W 072°14'1 8.7
2017-Nov-14 21:00N 41°11' W 072°14'713.7
2017-Nov-14 20:30N 41°16' W 072°08'3 2.1
2017-Nov-14 19:03N 41°18' W 072°05'212.8
2017-Nov-14 18:55N 41°16' W 072°06'613.5
2017-Nov-14 18:30N 41°13' W 072°11'4 3.0
2017-Nov-14 17:14N 41°09' W 072°14'311.4
2017-Nov-14 16:57N 41°12' W 072°12'512.2
2017-Nov-14 16:30N 41°16' W 072°07'2 1.0
2017-Nov-14 14:57N 41°17' W 072°06'613.9
2017-Nov-14 14:30N 41°13' W 072°11'3 2.4
2017-Nov-14 13:09N 41°10' W 072°13'212.6
2017-Nov-14 13:00N 41°11' W 072°13'713.8
2017-Nov-14 12:29N 41°17' W 072°07'2 0.2
2017-Nov-14 01:01N 41°18' W 072°05'113.1
2017-Nov-14 00:56N 41°17' W 072°05'613.0
2017-Nov-14 00:30N 41°13' W 072°10'5 3.5
2017-Nov-13 23:10N 41°09' W 072°14'210.7
2017-Nov-13 23:01N 41°11' W 072°14'714.5
2017-Nov-13 22:30N 41°16' W 072°07'9 0.4
2017-Nov-13 01:24N 41°09' W 072°14'410.4
2017-Nov-13 01:00N 41°13' W 072°11'  
Track history (hours):
 
Tides and Currents Weather Stations Pressure Air Temp Water Temp Dewpoint Dewpoint Depression Visibility Wind Speed Wind Dir Waves Ship Positions

John H.

Owner: CROSS SOUND FERRY SERVICE INC, NEW LOUDON, CT. More information available from US FCC via Universal Licensing System and Coast Guard Vessel Documentation Center.

Last reported at 2017-Nov-22 23:30 UTC. Time now 2017-Nov-23 00:22 UTC.
Position N 41°09' W 072°14'.

Length 70 m; draft 3.2 m.

Type: Passenger vessel. MMSI: 366934890.

Date/timePositionNaut miles runAvg speedWind from/ knotsBaromVisibWave heightAir tempDewpointWater temp
2017-Nov-22 23:30N 41°09' W 072°14'611.1
2017-Nov-22 23:01N 41°14' W 072°10'4 2.3
2017-Nov-22 21:09N 41°17' W 072°06'213.6
2017-Nov-22 21:00N 41°15' W 072°08'713.5
2017-Nov-22 20:30N 41°10' W 072°13'1 0.9
2017-Nov-22 19:33N 41°09' W 072°14'112.9
2017-Nov-22 19:30N 41°09' W 072°13'  
2017-Nov-20 00:29N 41°12' W 072°13'4 1.2
2017-Nov-19 20:47N 41°15' W 072°08'7 1.3
2017-Nov-19 15:18N 41°09' W 072°14'3 9.5
2017-Nov-19 15:00N 41°12' W 072°12'8 4.2
2017-Nov-19 13:04N 41°18' W 072°05'312.6
2017-Nov-19 12:50N 41°16' W 072°07'412.5
2017-Nov-19 12:30N 41°13' W 072°11'4 4.4
2017-Nov-19 11:38N 41°09' W 072°14'1 8.5
2017-Nov-19 11:30N 41°10' W 072°14'611.6
2017-Nov-19 10:59N 41°15' W 072°08'4 0.5
2017-Nov-19 02:31N 41°18' W 072°05'013.7
2017-Nov-19 02:30N 41°18' W 072°05'612.6
2017-Nov-19 02:00N 41°13' W 072°11'5 6.6
2017-Nov-19 01:18N 41°09' W 072°14'2 6.3
2017-Nov-19 00:56N 41°11' W 072°13'614.6
2017-Nov-19 00:30N 41°16' W 072°07'3 1.8
2017-Nov-18 22:59N 41°18' W 072°05'713.2
2017-Nov-18 22:29N 41°13' W 072°11'4 3.5
2017-Nov-18 21:16N 41°09' W 072°14'311.3
2017-Nov-18 21:00N 41°12' W 072°12'611.4
2017-Nov-18 20:30N 41°16' W 072°07'2 1.5
2017-Nov-18 18:55N 41°18' W 072°05'614.3
2017-Nov-18 18:30N 41°13' W 072°10'5 3.8
2017-Nov-18 17:18N 41°09' W 072°13'310.5
2017-Nov-18 17:00N 41°12' W 072°12'4 2.0
2017-Nov-18 14:47N 41°15' W 072°08'312.4
2017-Nov-18 14:30N 41°13' W 072°11'5 3.5
2017-Nov-18 13:12N 41°09' W 072°14'210.7
2017-Nov-18 12:59N 41°11' W 072°13'714.8
2017-Nov-18 12:30N 41°16' W 072°07'2 0.2
2017-Nov-18 01:05N 41°18' W 072°05'212.5
2017-Nov-18 00:57N 41°16' W 072°06'511.8
2017-Nov-18 00:30N 41°13' W 072°11'3 2.2
2017-Nov-17 23:08N 41°10' W 072°13'211.6
2017-Nov-17 23:00N 41°12' W 072°13'6 2.9
2017-Nov-17 20:50N 41°16' W 072°06'514.1
2017-Nov-17 20:29N 41°12' W 072°11'4 1.1
2017-Nov-17 16:46N 41°15' W 072°07'3 1.6
2017-Nov-17 14:51N 41°14' W 072°11'5 3.3
2017-Nov-17 13:12N 41°17' W 072°05'312.8
2017-Nov-17 12:59N 41°15' W 072°07'611.8
2017-Nov-17 12:30N 41°11' W 072°13'2 0.2
2017-Nov-17 01:17N 41°09' W 072°14'3 9.8
2017-Nov-17 01:00N 41°12' W 072°13'713.2
2017-Nov-17 00:30N 41°16' W 072°07'2 1.5
2017-Nov-16 23:07N 41°18' W 072°05'112.2
2017-Nov-16 23:00N 41°17' W 072°06'612.1
2017-Nov-16 22:29N 41°12' W 072°12'3 2.3
2017-Nov-16 21:11N 41°10' W 072°13'211.3
2017-Nov-16 21:00N 41°12' W 072°12'612.5
2017-Nov-16 20:30N 41°16' W 072°07'1 0.8
2017-Nov-16 18:54N 41°17' W 072°06'613.8
2017-Nov-16 18:29N 41°13' W 072°11'4 3.0
2017-Nov-16 17:15N 41°09' W 072°13'310.7
2017-Nov-16 17:00N 41°12' W 072°12'611.3
2017-Nov-16 16:29N 41°16' W 072°07'2 1.0
2017-Nov-16 14:58N 41°17' W 072°05'613.1
2017-Nov-16 14:29N 41°13' W 072°11'4 3.5
2017-Nov-16 13:17N 41°09' W 072°14'311.3
2017-Nov-16 13:00N 41°12' W 072°13'813.4
2017-Nov-16 12:24N 41°18' W 072°06'0 0.0
2017-Nov-16 01:02N 41°18' W 072°05'213.4
2017-Nov-16 00:51N 41°16' W 072°07'512.3
2017-Nov-16 00:29N 41°13' W 072°11'4 3.6
2017-Nov-15 23:18N 41°09' W 072°14'311.0
2017-Nov-15 23:00N 41°12' W 072°12'8 4.2
2017-Nov-15 21:06N 41°18' W 072°05'311.6
2017-Nov-15 20:51N 41°16' W 072°07'412.3
2017-Nov-15 20:30N 41°13' W 072°11'4 3.4
2017-Nov-15 19:19N 41°09' W 072°14'310.5
2017-Nov-15 19:00N 41°12' W 072°12'7 3.4
2017-Nov-15 16:54N 41°17' W 072°05'614.6
2017-Nov-15 16:30N 41°13' W 072°11'4 3.6
2017-Nov-15 15:19N 41°09' W 072°14'411.1
2017-Nov-15 14:59N 41°12' W 072°12'3 0.2
2017-Nov-15 01:12N 41°09' W 072°13'211.8
2017-Nov-15 01:00N 41°12' W 072°13'714.0
2017-Nov-15 00:29N 41°17' W 072°06'0 0.1
2017-Nov-14 23:00N 41°17' W 072°06'611.7
2017-Nov-14 22:30N 41°13' W 072°12'4 2.9
2017-Nov-14 21:10N 41°09' W 072°14'1 8.7
2017-Nov-14 21:00N 41°11' W 072°14'713.7
2017-Nov-14 20:30N 41°16' W 072°08'3 2.1
2017-Nov-14 19:03N 41°18' W 072°05'212.8
2017-Nov-14 18:55N 41°16' W 072°06'613.5
2017-Nov-14 18:30N 41°13' W 072°11'4 3.0
2017-Nov-14 17:14N 41°09' W 072°14'311.4
2017-Nov-14 16:57N 41°12' W 072°12'512.2
2017-Nov-14 16:30N 41°16' W 072°07'2 1.0
2017-Nov-14 14:57N 41°17' W 072°06'613.9
2017-Nov-14 14:30N 41°13' W 072°11'3 2.4
2017-Nov-14 13:09N 41°10' W 072°13'212.6
2017-Nov-14 13:00N 41°11' W 072°13'713.8
2017-Nov-14 12:29N 41°17' W 072°07'2 0.2
2017-Nov-14 01:01N 41°18' W 072°05'113.1
2017-Nov-14 00:56N 41°17' W 072°05'613.0
2017-Nov-14 00:30N 41°13' W 072°10'5 3.5
2017-Nov-13 23:10N 41°09' W 072°14'210.7
2017-Nov-13 23:01N 41°11' W 072°14'714.5
2017-Nov-13 22:30N 41°16' W 072°07'9 0.4
2017-Nov-13 01:24N 41°09' W 072°14'410.4
2017-Nov-13 01:00N 41°13' W 072°11'  

Dump ship's entire track history